Unser Platzwetter:
(um das Bild zu aktualisieren oder bei unvollständig geladenem Bild den Reload-Button des Browsers drücken)

 

 
[Quelle: ADDS]
METAR
ETNN 252220Z 33011KT 9999 BKN038 06/02 Q1029 BLU =
AMD ETNN 251930Z 2515/2524 30015G25KT 9999 NSW SCT020 BKN040 TEMPO 2515/2518 32020G35KT 4000 SHRAGS SCT010 BKN015CB PROB30 2515/2517 33025G38KT 2000 TSGS BKN010CB CANCEL BY ETGL
TAF
AMD ETNN 251930Z 2515/2524 30015G25KT 9999 NSW SCT020 BKN040 TEMPO 2515/2518 32020G35KT 4000 SHRAGS SCT010 BKN015CB PROB30 2515/2517 33025G38KT 2000 TSGS BKN010CB CANCEL BY ETGL =
SR / SS: 05:24 / 17:53 UTC (Vettweiss-Soller 2019-03-25)
 

Hier gibt es ein Wetterdiagramm der letzten 7 Tage.

Hier geht es zu unserer Webcam.

Satelitenbild:

aktuelles Meteosat-Bild von www.wetterzentrale.de